sensor_id;sensor_type;location;lat;lon;timestamp;temperature;humidity
2174;DHT22;1093;51.424;11.764;2023-09-30T00:00:33;17.80;1.40
2174;DHT22;1093;51.424;11.764;2023-09-30T00:03:43;17.80;1.40
2174;DHT22;1093;51.424;11.764;2023-09-30T00:06:37;17.80;1.40
2174;DHT22;1093;51.424;11.764;2023-09-30T00:09:28;17.70;1.40
2174;DHT22;1093;51.424;11.764;2023-09-30T00:12:22;17.70;1.40
2174;DHT22;1093;51.424;11.764;2023-09-30T00:15:12;17.70;1.40
2174;DHT22;1093;51.424;11.764;2023-09-30T00:18:06;17.60;1.40
2174;DHT22;1093;51.424;11.764;2023-09-30T00:20:53;17.50;1.40
2174;DHT22;1093;51.424;11.764;2023-09-30T00:23:45;17.50;1.40
2174;DHT22;1093;51.424;11.764;2023-09-30T00:26:24;17.50;1.40
2174;DHT22;1093;51.424;11.764;2023-09-30T00:28:56;17.40;1.40
2174;DHT22;1093;51.424;11.764;2023-09-30T00:31:49;17.40;1.40
2174;DHT22;1093;51.424;11.764;2023-09-30T00:34:26;17.30;1.40
2174;DHT22;1093;51.424;11.764;2023-09-30T00:37:14;17.30;1.40
2174;DHT22;1093;51.424;11.764;2023-09-30T00:43:35;17.10;1.40
2174;DHT22;1093;51.424;11.764;2023-09-30T00:46:13;17.10;1.40
2174;DHT22;1093;51.424;11.764;2023-09-30T00:48:58;17.00;1.40
2174;DHT22;1093;51.424;11.764;2023-09-30T00:51:31;17.00;1.40
2174;DHT22;1093;51.424;11.764;2023-09-30T00:54:17;16.90;1.40
2174;DHT22;1093;51.424;11.764;2023-09-30T00:56:51;16.80;1.40
2174;DHT22;1093;51.424;11.764;2023-09-30T01:02:44;16.70;1.40
2174;DHT22;1093;51.424;11.764;2023-09-30T01:05:28;16.70;1.40
2174;DHT22;1093;51.424;11.764;2023-09-30T01:08:21;16.60;1.40
2174;DHT22;1093;51.424;11.764;2023-09-30T01:11:07;16.50;1.40
2174;DHT22;1093;51.424;11.764;2023-09-30T01:13:43;16.50;1.40
2174;DHT22;1093;51.424;11.764;2023-09-30T01:16:31;16.50;1.40
2174;DHT22;1093;51.424;11.764;2023-09-30T01:22:14;16.30;1.40
2174;DHT22;1093;51.424;11.764;2023-09-30T01:24:46;16.30;1.40
2174;DHT22;1093;51.424;11.764;2023-09-30T01:27:14;16.30;1.40
2174;DHT22;1093;51.424;11.764;2023-09-30T01:29:53;16.20;1.40
2174;DHT22;1093;51.424;11.764;2023-09-30T01:32:23;16.20;1.40
2174;DHT22;1093;51.424;11.764;2023-09-30T01:34:57;16.10;1.40
2174;DHT22;1093;51.424;11.764;2023-09-30T01:37:32;16.10;1.40
2174;DHT22;1093;51.424;11.764;2023-09-30T01:40:20;16.10;1.40
2174;DHT22;1093;51.424;11.764;2023-09-30T01:43:01;16.10;1.40
2174;DHT22;1093;51.424;11.764;2023-09-30T01:46:13;16.00;1.40
2174;DHT22;1093;51.424;11.764;2023-09-30T01:48:55;15.90;1.40
2174;DHT22;1093;51.424;11.764;2023-09-30T01:51:26;15.90;1.40
2174;DHT22;1093;51.424;11.764;2023-09-30T01:54:05;15.80;1.40
2174;DHT22;1093;51.424;11.764;2023-09-30T01:57:04;15.70;1.40
2174;DHT22;1093;51.424;11.764;2023-09-30T01:59:36;15.70;1.40
2174;DHT22;1093;51.424;11.764;2023-09-30T02:02:07;15.70;1.40
2174;DHT22;1093;51.424;11.764;2023-09-30T02:14:39;15.30;1.40
2174;DHT22;1093;51.424;11.764;2023-09-30T02:17:20;15.30;1.40
2174;DHT22;1093;51.424;11.764;2023-09-30T02:19:51;15.20;1.40
2174;DHT22;1093;51.424;11.764;2023-09-30T02:22:19;15.20;1.40
2174;DHT22;1093;51.424;11.764;2023-09-30T02:25:28;15.10;1.40
2174;DHT22;1093;51.424;11.764;2023-09-30T02:31:06;15.00;1.40
2174;DHT22;1093;51.424;11.764;2023-09-30T02:34:08;15.00;1.40
2174;DHT22;1093;51.424;11.764;2023-09-30T02:36:38;14.90;1.40
2174;DHT22;1093;51.424;11.764;2023-09-30T02:39:26;14.80;1.40
2174;DHT22;1093;51.424;11.764;2023-09-30T02:41:58;14.80;1.40
2174;DHT22;1093;51.424;11.764;2023-09-30T02:47:19;14.70;1.40
2174;DHT22;1093;51.424;11.764;2023-09-30T02:50:00;14.70;1.40
2174;DHT22;1093;51.424;11.764;2023-09-30T02:52:56;14.60;1.40
2174;DHT22;1093;51.424;11.764;2023-09-30T02:55:45;14.60;1.40
2174;DHT22;1093;51.424;11.764;2023-09-30T02:58:30;14.60;1.40
2174;DHT22;1093;51.424;11.764;2023-09-30T03:01:16;14.50;1.40
2174;DHT22;1093;51.424;11.764;2023-09-30T03:04:38;14.50;1.40
2174;DHT22;1093;51.424;11.764;2023-09-30T03:07:18;14.40;1.40
2174;DHT22;1093;51.424;11.764;2023-09-30T03:10:10;14.40;1.40
2174;DHT22;1093;51.424;11.764;2023-09-30T03:12:47;14.40;1.40
2174;DHT22;1093;51.424;11.764;2023-09-30T03:15:20;14.30;1.40
2174;DHT22;1093;51.424;11.764;2023-09-30T03:17:59;14.30;1.40
2174;DHT22;1093;51.424;11.764;2023-09-30T03:21:00;14.30;1.40
2174;DHT22;1093;51.424;11.764;2023-09-30T03:24:07;14.20;1.40
2174;DHT22;1093;51.424;11.764;2023-09-30T03:26:56;14.20;1.40
2174;DHT22;1093;51.424;11.764;2023-09-30T03:29:47;14.10;1.40
2174;DHT22;1093;51.424;11.764;2023-09-30T03:32:32;14.10;1.40
2174;DHT22;1093;51.424;11.764;2023-09-30T03:38:56;14.10;1.40
2174;DHT22;1093;51.424;11.764;2023-09-30T03:42:12;14.10;1.40
2174;DHT22;1093;51.424;11.764;2023-09-30T03:44:56;14.00;1.40
2174;DHT22;1093;51.424;11.764;2023-09-30T03:47:37;14.00;1.40
2174;DHT22;1093;51.424;11.764;2023-09-30T03:50:11;14.00;1.40
2174;DHT22;1093;51.424;11.764;2023-09-30T03:52:44;13.90;1.40
2174;DHT22;1093;51.424;11.764;2023-09-30T03:55:35;13.90;1.40
2174;DHT22;1093;51.424;11.764;2023-09-30T03:58:13;13.80;1.40
2174;DHT22;1093;51.424;11.764;2023-09-30T04:01:07;13.90;1.40
2174;DHT22;1093;51.424;11.764;2023-09-30T04:03:47;13.80;1.40
2174;DHT22;1093;51.424;11.764;2023-09-30T04:06:15;13.80;1.40
2174;DHT22;1093;51.424;11.764;2023-09-30T04:09:18;13.80;1.40
2174;DHT22;1093;51.424;11.764;2023-09-30T04:12:16;13.80;1.40
2174;DHT22;1093;51.424;11.764;2023-09-30T04:14:56;13.70;1.40
2174;DHT22;1093;51.424;11.764;2023-09-30T04:17:26;13.70;1.40
2174;DHT22;1093;51.424;11.764;2023-09-30T04:19:59;13.70;1.40
2174;DHT22;1093;51.424;11.764;2023-09-30T04:22:46;13.70;1.40
2174;DHT22;1093;51.424;11.764;2023-09-30T04:25:26;13.70;1.40
2174;DHT22;1093;51.424;11.764;2023-09-30T04:28:31;13.70;1.40
2174;DHT22;1093;51.424;11.764;2023-09-30T04:31:19;13.70;1.40
2174;DHT22;1093;51.424;11.764;2023-09-30T04:34:14;13.60;1.40
2174;DHT22;1093;51.424;11.764;2023-09-30T04:36:56;13.60;1.40
2174;DHT22;1093;51.424;11.764;2023-09-30T04:39:53;13.60;1.40
2174;DHT22;1093;51.424;11.764;2023-09-30T04:42:30;13.60;1.40
2174;DHT22;1093;51.424;11.764;2023-09-30T04:45:03;13.60;1.40
2174;DHT22;1093;51.424;11.764;2023-09-30T04:47:33;13.60;1.40
2174;DHT22;1093;51.424;11.764;2023-09-30T04:50:25;13.50;1.40
2174;DHT22;1093;51.424;11.764;2023-09-30T04:53:13;13.50;1.40
2174;DHT22;1093;51.424;11.764;2023-09-30T04:56:03;13.40;1.40
2174;DHT22;1093;51.424;11.764;2023-09-30T04:58:53;13.30;1.40
2174;DHT22;1093;51.424;11.764;2023-09-30T05:08:10;13.20;1.40
2174;DHT22;1093;51.424;11.764;2023-09-30T05:13:41;13.10;1.40
2174;DHT22;1093;51.424;11.764;2023-09-30T05:16:16;13.00;1.40
2174;DHT22;1093;51.424;11.764;2023-09-30T05:18:51;13.00;1.40
2174;DHT22;1093;51.424;11.764;2023-09-30T05:21:22;12.90;1.40
2174;DHT22;1093;51.424;11.764;2023-09-30T05:30:41;12.90;1.40
2174;DHT22;1093;51.424;11.764;2023-09-30T05:33:29;12.90;1.40
2174;DHT22;1093;51.424;11.764;2023-09-30T05:36:14;12.80;1.40
2174;DHT22;1093;51.424;11.764;2023-09-30T05:42:12;12.80;1.40
2174;DHT22;1093;51.424;11.764;2023-09-30T05:45:05;12.70;1.40
2174;DHT22;1093;51.424;11.764;2023-09-30T05:47:58;12.70;1.40
2174;DHT22;1093;51.424;11.764;2023-09-30T05:50:41;12.60;1.40
2174;DHT22;1093;51.424;11.764;2023-09-30T05:53:17;12.70;1.40
2174;DHT22;1093;51.424;11.764;2023-09-30T05:55:48;12.60;1.40
2174;DHT22;1093;51.424;11.764;2023-09-30T05:58:33;12.60;1.40
2174;DHT22;1093;51.424;11.764;2023-09-30T06:01:21;12.60;1.40
2174;DHT22;1093;51.424;11.764;2023-09-30T06:04:22;12.60;1.40
2174;DHT22;1093;51.424;11.764;2023-09-30T06:10:30;12.60;1.40
2174;DHT22;1093;51.424;11.764;2023-09-30T06:13:19;12.60;1.40
2174;DHT22;1093;51.424;11.764;2023-09-30T06:16:17;12.60;1.40
2174;DHT22;1093;51.424;11.764;2023-09-30T06:19:06;12.70;1.40
2174;DHT22;1093;51.424;11.764;2023-09-30T06:21:56;12.70;1.40
2174;DHT22;1093;51.424;11.764;2023-09-30T06:24:39;12.70;1.40
2174;DHT22;1093;51.424;11.764;2023-09-30T06:27:17;12.80;1.40
2174;DHT22;1093;51.424;11.764;2023-09-30T06:30:24;12.80;1.40
2174;DHT22;1093;51.424;11.764;2023-09-30T06:33:58;12.90;1.40
2174;DHT22;1093;51.424;11.764;2023-09-30T06:36:33;12.90;1.40
2174;DHT22;1093;51.424;11.764;2023-09-30T06:39:21;12.90;1.40
2174;DHT22;1093;51.424;11.764;2023-09-30T06:42:26;13.00;1.40
2174;DHT22;1093;51.424;11.764;2023-09-30T06:45:11;13.10;1.40
2174;DHT22;1093;51.424;11.764;2023-09-30T06:51:22;13.20;1.40
2174;DHT22;1093;51.424;11.764;2023-09-30T06:54:31;13.20;1.40
2174;DHT22;1093;51.424;11.764;2023-09-30T06:57:12;13.20;1.40
2174;DHT22;1093;51.424;11.764;2023-09-30T06:59:44;13.30;1.40
2174;DHT22;1093;51.424;11.764;2023-09-30T07:02:24;13.40;1.40
2174;DHT22;1093;51.424;11.764;2023-09-30T07:05:27;13.40;1.40
2174;DHT22;1093;51.424;11.764;2023-09-30T07:08:29;13.50;1.40
2174;DHT22;1093;51.424;11.764;2023-09-30T07:11:30;13.60;1.40
2174;DHT22;1093;51.424;11.764;2023-09-30T07:14:10;13.70;1.40
2174;DHT22;1093;51.424;11.764;2023-09-30T07:16:41;13.70;1.40
2174;DHT22;1093;51.424;11.764;2023-09-30T07:19:48;13.80;1.40
2174;DHT22;1093;51.424;11.764;2023-09-30T07:22:19;13.90;1.40
2174;DHT22;1093;51.424;11.764;2023-09-30T07:25:06;13.90;1.40
2174;DHT22;1093;51.424;11.764;2023-09-30T07:28:19;14.00;1.40
2174;DHT22;1093;51.424;11.764;2023-09-30T07:31:18;14.10;1.40
2174;DHT22;1093;51.424;11.764;2023-09-30T07:34:16;14.20;1.40
2174;DHT22;1093;51.424;11.764;2023-09-30T07:37:12;14.30;1.40
2174;DHT22;1093;51.424;11.764;2023-09-30T07:41:11;14.40;1.40
2174;DHT22;1093;51.424;11.764;2023-09-30T07:43:43;14.40;1.40
2174;DHT22;1093;51.424;11.764;2023-09-30T07:46:39;14.40;1.40
2174;DHT22;1093;51.424;11.764;2023-09-30T07:49:37;14.40;1.40
2174;DHT22;1093;51.424;11.764;2023-09-30T07:52:38;14.50;1.40
2174;DHT22;1093;51.424;11.764;2023-09-30T07:55:35;14.50;1.40
2174;DHT22;1093;51.424;11.764;2023-09-30T07:58:36;14.50;1.40
2174;DHT22;1093;51.424;11.764;2023-09-30T08:08:01;14.60;1.40
2174;DHT22;1093;51.424;11.764;2023-09-30T08:11:41;14.70;1.40
2174;DHT22;1093;51.424;11.764;2023-09-30T08:14:24;14.90;1.40
2174;DHT22;1093;51.424;11.764;2023-09-30T08:16:54;15.10;1.40
2174;DHT22;1093;51.424;11.764;2023-09-30T08:19:39;15.10;1.40
2174;DHT22;1093;51.424;11.764;2023-09-30T08:25:48;15.40;1.40
2174;DHT22;1093;51.424;11.764;2023-09-30T08:31:56;15.60;1.40
2174;DHT22;1093;51.424;11.764;2023-09-30T08:34:48;15.70;1.40
2174;DHT22;1093;51.424;11.764;2023-09-30T08:37:40;15.90;1.40
2174;DHT22;1093;51.424;11.764;2023-09-30T08:43:48;16.10;1.40
2174;DHT22;1093;51.424;11.764;2023-09-30T08:46:28;16.30;1.40
2174;DHT22;1093;51.424;11.764;2023-09-30T08:49:11;16.30;1.40
2174;DHT22;1093;51.424;11.764;2023-09-30T08:51:54;16.50;1.40
2174;DHT22;1093;51.424;11.764;2023-09-30T08:54:35;16.50;1.40
2174;DHT22;1093;51.424;11.764;2023-09-30T08:57:10;16.50;1.40
2174;DHT22;1093;51.424;11.764;2023-09-30T09:03:23;16.60;1.40
2174;DHT22;1093;51.424;11.764;2023-09-30T09:10:24;16.90;1.40
2174;DHT22;1093;51.424;11.764;2023-09-30T09:13:44;17.00;1.40
2174;DHT22;1093;51.424;11.764;2023-09-30T09:20:07;17.10;1.40
2174;DHT22;1093;51.424;11.764;2023-09-30T09:22:48;17.20;1.40
2174;DHT22;1093;51.424;11.764;2023-09-30T09:25:38;17.30;1.40
2174;DHT22;1093;51.424;11.764;2023-09-30T09:29:07;17.40;1.40
2174;DHT22;1093;51.424;11.764;2023-09-30T09:32:35;17.50;1.40
2174;DHT22;1093;51.424;11.764;2023-09-30T09:36:02;17.60;1.40
2174;DHT22;1093;51.424;11.764;2023-09-30T09:39:06;17.70;1.40
2174;DHT22;1093;51.424;11.764;2023-09-30T09:45:01;17.80;1.40
2174;DHT22;1093;51.424;11.764;2023-09-30T09:48:07;17.90;1.40
2174;DHT22;1093;51.424;11.764;2023-09-30T09:52:29;17.90;1.40
2174;DHT22;1093;51.424;11.764;2023-09-30T09:54:17;18.00;1.40
2174;DHT22;1093;51.424;11.764;2023-09-30T09:57:05;18.00;1.40
2174;DHT22;1093;51.424;11.764;2023-09-30T09:59:43;18.10;1.40
2174;DHT22;1093;51.424;11.764;2023-09-30T10:02:39;18.20;1.40
2174;DHT22;1093;51.424;11.764;2023-09-30T10:05:29;18.20;1.40
2174;DHT22;1093;51.424;11.764;2023-09-30T10:08:03;18.30;1.40
2174;DHT22;1093;51.424;11.764;2023-09-30T10:11:33;18.40;1.40
2174;DHT22;1093;51.424;11.764;2023-09-30T10:14:35;18.40;1.40
2174;DHT22;1093;51.424;11.764;2023-09-30T10:17:12;18.40;1.40
2174;DHT22;1093;51.424;11.764;2023-09-30T10:23:21;18.50;1.40
2174;DHT22;1093;51.424;11.764;2023-09-30T10:26:47;18.50;1.40
2174;DHT22;1093;51.424;11.764;2023-09-30T10:29:49;18.60;1.40
2174;DHT22;1093;51.424;11.764;2023-09-30T10:33:13;18.60;1.40
2174;DHT22;1093;51.424;11.764;2023-09-30T10:36:05;18.60;1.40
2174;DHT22;1093;51.424;11.764;2023-09-30T10:46:05;18.70;1.40
2174;DHT22;1093;51.424;11.764;2023-09-30T10:49:37;18.70;1.40
2174;DHT22;1093;51.424;11.764;2023-09-30T10:52:30;18.70;1.40
2174;DHT22;1093;51.424;11.764;2023-09-30T10:55:04;18.70;1.40
2174;DHT22;1093;51.424;11.764;2023-09-30T10:57:59;18.70;1.40
2174;DHT22;1093;51.424;11.764;2023-09-30T11:00:42;18.70;1.40
2174;DHT22;1093;51.424;11.764;2023-09-30T11:04:10;18.80;1.40
2174;DHT22;1093;51.424;11.764;2023-09-30T11:06:57;18.90;1.40
2174;DHT22;1093;51.424;11.764;2023-09-30T11:12:56;18.90;1.40
2174;DHT22;1093;51.424;11.764;2023-09-30T11:15:37;19.00;1.40
2174;DHT22;1093;51.424;11.764;2023-09-30T11:18:28;19.00;1.40
2174;DHT22;1093;51.424;11.764;2023-09-30T11:24:27;19.10;1.40
2174;DHT22;1093;51.424;11.764;2023-09-30T11:27:33;19.00;1.40
2174;DHT22;1093;51.424;11.764;2023-09-30T11:30:56;19.00;1.40
2174;DHT22;1093;51.424;11.764;2023-09-30T11:33:59;19.10;1.40
2174;DHT22;1093;51.424;11.764;2023-09-30T11:36:52;19.10;1.40
2174;DHT22;1093;51.424;11.764;2023-09-30T11:40:11;19.00;1.40
2174;DHT22;1093;51.424;11.764;2023-09-30T11:43:09;19.00;1.40
2174;DHT22;1093;51.424;11.764;2023-09-30T11:46:10;19.10;1.40
2174;DHT22;1093;51.424;11.764;2023-09-30T11:49:07;19.10;1.40
2174;DHT22;1093;51.424;11.764;2023-09-30T11:52:03;19.10;1.40
2174;DHT22;1093;51.424;11.764;2023-09-30T11:55:19;19.20;1.40
2174;DHT22;1093;51.424;11.764;2023-09-30T11:57:48;19.20;1.40
2174;DHT22;1093;51.424;11.764;2023-09-30T12:00:42;19.30;1.40
2174;DHT22;1093;51.424;11.764;2023-09-30T12:03:41;19.30;1.40
2174;DHT22;1093;51.424;11.764;2023-09-30T12:06:20;19.30;1.40
2174;DHT22;1093;51.424;11.764;2023-09-30T12:09:38;19.40;1.40
2174;DHT22;1093;51.424;11.764;2023-09-30T12:12:36;19.50;1.40
2174;DHT22;1093;51.424;11.764;2023-09-30T12:15:24;19.50;1.40
2174;DHT22;1093;51.424;11.764;2023-09-30T12:21:22;19.60;1.40
2174;DHT22;1093;51.424;11.764;2023-09-30T12:27:28;19.70;1.40
2174;DHT22;1093;51.424;11.764;2023-09-30T12:30:24;19.70;1.40
2174;DHT22;1093;51.424;11.764;2023-09-30T12:33:13;19.70;1.40
2174;DHT22;1093;51.424;11.764;2023-09-30T12:35:59;19.80;1.40
2174;DHT22;1093;51.424;11.764;2023-09-30T12:38:31;19.80;1.40
2174;DHT22;1093;51.424;11.764;2023-09-30T12:41:08;19.90;1.40
2174;DHT22;1093;51.424;11.764;2023-09-30T12:46:51;20.00;1.40
2174;DHT22;1093;51.424;11.764;2023-09-30T12:52:47;20.10;1.40
2174;DHT22;1093;51.424;11.764;2023-09-30T12:55:54;20.10;1.40
2174;DHT22;1093;51.424;11.764;2023-09-30T12:58:27;20.20;1.40
2174;DHT22;1093;51.424;11.764;2023-09-30T13:04:23;20.20;1.40
2174;DHT22;1093;51.424;11.764;2023-09-30T13:07:20;20.20;1.40
2174;DHT22;1093;51.424;11.764;2023-09-30T13:09:58;20.30;1.40
2174;DHT22;1093;51.424;11.764;2023-09-30T13:12:47;20.30;1.40
2174;DHT22;1093;51.424;11.764;2023-09-30T13:18:16;20.30;1.40
2174;DHT22;1093;51.424;11.764;2023-09-30T13:20:56;20.30;1.40
2174;DHT22;1093;51.424;11.764;2023-09-30T13:23:39;20.40;1.40
2174;DHT22;1093;51.424;11.764;2023-09-30T13:26:14;20.50;1.40
2174;DHT22;1093;51.424;11.764;2023-09-30T13:29:13;20.50;1.40
2174;DHT22;1093;51.424;11.764;2023-09-30T13:32:26;20.60;1.40
2174;DHT22;1093;51.424;11.764;2023-09-30T13:35:11;20.60;1.40
2174;DHT22;1093;51.424;11.764;2023-09-30T13:37:46;20.70;1.40
2174;DHT22;1093;51.424;11.764;2023-09-30T13:40:37;20.70;1.40
2174;DHT22;1093;51.424;11.764;2023-09-30T13:43:15;20.80;1.40
2174;DHT22;1093;51.424;11.764;2023-09-30T13:46:02;20.70;1.40
2174;DHT22;1093;51.424;11.764;2023-09-30T13:48:46;20.80;1.40
2174;DHT22;1093;51.424;11.764;2023-09-30T13:51:45;20.90;1.40
2174;DHT22;1093;51.424;11.764;2023-09-30T13:54:20;20.90;1.40
2174;DHT22;1093;51.424;11.764;2023-09-30T13:57:11;21.00;1.40
2174;DHT22;1093;51.424;11.764;2023-09-30T13:59:58;21.00;1.40
2174;DHT22;1093;51.424;11.764;2023-09-30T14:05:26;21.10;1.40
2174;DHT22;1093;51.424;11.764;2023-09-30T14:08:17;21.10;1.40
2174;DHT22;1093;51.424;11.764;2023-09-30T14:10:49;21.20;1.40
2174;DHT22;1093;51.424;11.764;2023-09-30T14:13:23;21.20;1.40
2174;DHT22;1093;51.424;11.764;2023-09-30T14:16:20;21.20;1.40
2174;DHT22;1093;51.424;11.764;2023-09-30T14:28:46;21.30;1.40
2174;DHT22;1093;51.424;11.764;2023-09-30T14:34:34;21.30;1.40
2174;DHT22;1093;51.424;11.764;2023-09-30T14:37:26;21.20;1.40
2174;DHT22;1093;51.424;11.764;2023-09-30T14:50:55;21.20;1.40
2174;DHT22;1093;51.424;11.764;2023-09-30T14:53:29;21.20;1.40
2174;DHT22;1093;51.424;11.764;2023-09-30T14:55:57;21.10;1.40
2174;DHT22;1093;51.424;11.764;2023-09-30T14:58:40;21.00;1.40
2174;DHT22;1093;51.424;11.764;2023-09-30T15:01:27;21.00;1.40
2174;DHT22;1093;51.424;11.764;2023-09-30T15:03:54;21.00;1.40
2174;DHT22;1093;51.424;11.764;2023-09-30T15:06:54;21.00;1.40
2174;DHT22;1093;51.424;11.764;2023-09-30T15:09:40;20.90;1.40
2174;DHT22;1093;51.424;11.764;2023-09-30T15:12:20;20.90;1.40
2174;DHT22;1093;51.424;11.764;2023-09-30T15:20:57;20.70;1.40
2174;DHT22;1093;51.424;11.764;2023-09-30T15:24:06;20.60;1.40
2174;DHT22;1093;51.424;11.764;2023-09-30T15:26:49;20.60;1.40
2174;DHT22;1093;51.424;11.764;2023-09-30T15:29:39;20.50;1.40
2174;DHT22;1093;51.424;11.764;2023-09-30T15:32:28;20.50;1.40
2174;DHT22;1093;51.424;11.764;2023-09-30T15:35:23;20.40;1.40
2174;DHT22;1093;51.424;11.764;2023-09-30T15:38:18;20.40;1.40
2174;DHT22;1093;51.424;11.764;2023-09-30T15:41:04;20.30;1.40
2174;DHT22;1093;51.424;11.764;2023-09-30T15:44:15;20.20;1.40
2174;DHT22;1093;51.424;11.764;2023-09-30T15:46:55;20.20;1.40
2174;DHT22;1093;51.424;11.764;2023-09-30T15:49:36;20.10;1.40
2174;DHT22;1093;51.424;11.764;2023-09-30T15:55:35;20.00;1.40
2174;DHT22;1093;51.424;11.764;2023-09-30T15:59:17;19.90;1.40
2174;DHT22;1093;51.424;11.764;2023-09-30T16:01:45;19.90;1.40
2174;DHT22;1093;51.424;11.764;2023-09-30T16:04:29;19.80;1.40
2174;DHT22;1093;51.424;11.764;2023-09-30T16:08:27;19.80;1.40
2174;DHT22;1093;51.424;11.764;2023-09-30T16:10:01;19.70;1.40
2174;DHT22;1093;51.424;11.764;2023-09-30T16:12:43;19.60;1.40
2174;DHT22;1093;51.424;11.764;2023-09-30T16:15:30;19.50;1.40
2174;DHT22;1093;51.424;11.764;2023-09-30T16:18:12;19.50;1.40
2174;DHT22;1093;51.424;11.764;2023-09-30T16:21:16;19.40;1.40
2174;DHT22;1093;51.424;11.764;2023-09-30T16:24:00;19.30;1.40
2174;DHT22;1093;51.424;11.764;2023-09-30T16:26:41;19.20;1.40
2174;DHT22;1093;51.424;11.764;2023-09-30T16:29:22;19.10;1.40
2174;DHT22;1093;51.424;11.764;2023-09-30T16:32:08;19.00;1.40
2174;DHT22;1093;51.424;11.764;2023-09-30T16:35:04;19.00;1.40
2174;DHT22;1093;51.424;11.764;2023-09-30T16:37:36;18.80;1.40
2174;DHT22;1093;51.424;11.764;2023-09-30T16:40:29;18.80;1.40
2174;DHT22;1093;51.424;11.764;2023-09-30T16:46:06;18.60;1.40
2174;DHT22;1093;51.424;11.764;2023-09-30T16:48:59;18.50;1.40
2174;DHT22;1093;51.424;11.764;2023-09-30T16:52:05;18.40;1.40
2174;DHT22;1093;51.424;11.764;2023-09-30T16:54:51;18.30;1.40
2174;DHT22;1093;51.424;11.764;2023-09-30T16:57:21;18.20;1.40
2174;DHT22;1093;51.424;11.764;2023-09-30T17:00:00;18.10;1.40
2174;DHT22;1093;51.424;11.764;2023-09-30T17:05:15;17.80;1.40
2174;DHT22;1093;51.424;11.764;2023-09-30T17:07:50;17.70;1.40
2174;DHT22;1093;51.424;11.764;2023-09-30T17:10:41;17.70;1.40
2174;DHT22;1093;51.424;11.764;2023-09-30T17:13:18;17.50;1.40
2174;DHT22;1093;51.424;11.764;2023-09-30T17:15:58;17.40;1.40
2174;DHT22;1093;51.424;11.764;2023-09-30T17:21:38;17.30;1.40
2174;DHT22;1093;51.424;11.764;2023-09-30T17:24:30;17.20;1.40
2174;DHT22;1093;51.424;11.764;2023-09-30T17:27:45;17.00;1.40
2174;DHT22;1093;51.424;11.764;2023-09-30T17:30:19;16.90;1.40
2174;DHT22;1093;51.424;11.764;2023-09-30T17:33:21;16.80;1.40
2174;DHT22;1093;51.424;11.764;2023-09-30T17:36:05;16.70;1.40
2174;DHT22;1093;51.424;11.764;2023-09-30T17:39:13;16.60;1.40
2174;DHT22;1093;51.424;11.764;2023-09-30T17:42:01;16.50;1.40
2174;DHT22;1093;51.424;11.764;2023-09-30T17:44:37;16.40;1.40
2174;DHT22;1093;51.424;11.764;2023-09-30T17:47:18;16.30;1.40
2174;DHT22;1093;51.424;11.764;2023-09-30T17:50:02;16.20;1.40
2174;DHT22;1093;51.424;11.764;2023-09-30T17:52:44;16.10;1.40
2174;DHT22;1093;51.424;11.764;2023-09-30T18:01:50;15.80;1.40
2174;DHT22;1093;51.424;11.764;2023-09-30T18:04:38;15.70;1.40
2174;DHT22;1093;51.424;11.764;2023-09-30T18:07:16;15.70;1.40
2174;DHT22;1093;51.424;11.764;2023-09-30T18:09:54;15.70;1.40
2174;DHT22;1093;51.424;11.764;2023-09-30T18:12:41;15.50;1.40
2174;DHT22;1093;51.424;11.764;2023-09-30T18:18:42;15.40;1.40
2174;DHT22;1093;51.424;11.764;2023-09-30T18:21:30;15.30;1.40
2174;DHT22;1093;51.424;11.764;2023-09-30T18:24:00;15.20;1.40
2174;DHT22;1093;51.424;11.764;2023-09-30T18:26:41;15.10;1.40
2174;DHT22;1093;51.424;11.764;2023-09-30T18:29:24;15.10;1.40
2174;DHT22;1093;51.424;11.764;2023-09-30T18:31:59;15.00;1.40
2174;DHT22;1093;51.424;11.764;2023-09-30T18:34:30;15.00;1.40
2174;DHT22;1093;51.424;11.764;2023-09-30T18:37:12;14.90;1.40
2174;DHT22;1093;51.424;11.764;2023-09-30T18:39:55;14.80;1.40
2174;DHT22;1093;51.424;11.764;2023-09-30T18:42:29;14.80;1.40
2174;DHT22;1093;51.424;11.764;2023-09-30T18:45:01;14.70;1.40
2174;DHT22;1093;51.424;11.764;2023-09-30T18:47:29;14.70;1.40
2174;DHT22;1093;51.424;11.764;2023-09-30T18:50:37;14.60;1.40
2174;DHT22;1093;51.424;11.764;2023-09-30T18:53:18;14.60;1.40
2174;DHT22;1093;51.424;11.764;2023-09-30T18:56:18;14.60;1.40
2174;DHT22;1093;51.424;11.764;2023-09-30T18:59:33;14.50;1.40
2174;DHT22;1093;51.424;11.764;2023-09-30T19:05:31;14.40;1.40
2174;DHT22;1093;51.424;11.764;2023-09-30T19:08:28;14.30;1.40
2174;DHT22;1093;51.424;11.764;2023-09-30T19:11:11;14.30;1.40
2174;DHT22;1093;51.424;11.764;2023-09-30T19:13:54;14.20;1.40
2174;DHT22;1093;51.424;11.764;2023-09-30T19:16:55;14.20;1.40
2174;DHT22;1093;51.424;11.764;2023-09-30T19:27:15;14.00;1.40
2174;DHT22;1093;51.424;11.764;2023-09-30T19:30:09;13.90;1.40
2174;DHT22;1093;51.424;11.764;2023-09-30T19:32:47;13.90;1.40
2174;DHT22;1093;51.424;11.764;2023-09-30T19:35:34;13.80;1.40
2174;DHT22;1093;51.424;11.764;2023-09-30T19:38:13;13.70;1.40
2174;DHT22;1093;51.424;11.764;2023-09-30T19:41:04;13.70;1.40
2174;DHT22;1093;51.424;11.764;2023-09-30T19:47:24;13.50;1.40
2174;DHT22;1093;51.424;11.764;2023-09-30T19:50:12;13.40;1.40
2174;DHT22;1093;51.424;11.764;2023-09-30T19:53:01;13.30;1.40
2174;DHT22;1093;51.424;11.764;2023-09-30T19:59:17;13.20;1.40
2174;DHT22;1093;51.424;11.764;2023-09-30T20:04:49;13.00;1.40
2174;DHT22;1093;51.424;11.764;2023-09-30T20:07:46;12.90;1.40
2174;DHT22;1093;51.424;11.764;2023-09-30T20:13:54;12.70;1.40
2174;DHT22;1093;51.424;11.764;2023-09-30T20:23:21;12.60;1.40
2174;DHT22;1093;51.424;11.764;2023-09-30T20:26:20;12.60;1.40
2174;DHT22;1093;51.424;11.764;2023-09-30T20:29:16;12.50;1.40
2174;DHT22;1093;51.424;11.764;2023-09-30T20:31:58;12.40;1.40
2174;DHT22;1093;51.424;11.764;2023-09-30T20:34:54;12.40;1.40
2174;DHT22;1093;51.424;11.764;2023-09-30T20:38:14;12.40;1.40
2174;DHT22;1093;51.424;11.764;2023-09-30T20:40:58;12.30;1.40
2174;DHT22;1093;51.424;11.764;2023-09-30T20:44:02;12.30;1.40
2174;DHT22;1093;51.424;11.764;2023-09-30T20:46:48;12.30;1.40
2174;DHT22;1093;51.424;11.764;2023-09-30T20:49:37;12.20;1.40
2174;DHT22;1093;51.424;11.764;2023-09-30T20:52:35;12.20;1.40
2174;DHT22;1093;51.424;11.764;2023-09-30T20:57:43;12.20;1.40
2174;DHT22;1093;51.424;11.764;2023-09-30T20:59:05;12.20;1.40
2174;DHT22;1093;51.424;11.764;2023-09-30T21:08:51;12.10;1.40
2174;DHT22;1093;51.424;11.764;2023-09-30T21:15:12;12.00;1.40
2174;DHT22;1093;51.424;11.764;2023-09-30T21:21:19;12.00;1.40
2174;DHT22;1093;51.424;11.764;2023-09-30T21:27:16;12.00;1.40
2174;DHT22;1093;51.424;11.764;2023-09-30T21:30:11;12.00;1.40
2174;DHT22;1093;51.424;11.764;2023-09-30T21:32:38;12.00;1.40
2174;DHT22;1093;51.424;11.764;2023-09-30T21:35:12;12.10;1.40
2174;DHT22;1093;51.424;11.764;2023-09-30T21:38:03;12.10;1.40
2174;DHT22;1093;51.424;11.764;2023-09-30T21:40:42;12.10;1.40
2174;DHT22;1093;51.424;11.764;2023-09-30T21:45:07;12.10;1.40
2174;DHT22;1093;51.424;11.764;2023-09-30T21:47:00;12.10;1.40
2174;DHT22;1093;51.424;11.764;2023-09-30T21:49:41;12.10;1.40
2174;DHT22;1093;51.424;11.764;2023-09-30T21:52:13;12.10;1.40
2174;DHT22;1093;51.424;11.764;2023-09-30T21:54:59;12.10;1.40
2174;DHT22;1093;51.424;11.764;2023-09-30T21:57:45;12.20;1.40
2174;DHT22;1093;51.424;11.764;2023-09-30T22:00:39;12.20;1.40
2174;DHT22;1093;51.424;11.764;2023-09-30T22:07:03;12.30;1.40